Time;durP1;ratioP1;P1;durP2;ratioP2;P2;SDS_P1;SDS_P2;PMS_P1;PMS_P2;Temp;Humidity;BMP_temperature;BMP_pressure;BME280_temperature;BME280_humidity;BME280_pressure;Samples;Min_cycle;Max_cycle;Signal;HPM_P1;HPM_P2
2022/09/02 00:00:31;;;;;;;;;;;;;;;17.84;46.83;101231.56;5091365;28;19943;-78
2022/09/02 00:02:57;;;;;;;;;;;;;;;17.80;46.95;101230.00;5091887;28;19912;-78
2022/09/02 00:05:22;;;;;;;;;;;;;;;17.78;46.96;101232.69;5071965;28;19947;-78
2022/09/02 00:07:47;;;;;;;;;;;;;;;17.72;48.23;101227.69;5089854;28;20015;-78
2022/09/02 00:10:12;;;;;;;;;;;;;;;17.75;47.70;101230.19;5073018;28;19931;-78
2022/09/02 00:12:38;;;;;;;;;;;;;;;17.72;47.34;101234.72;5091250;28;19969;-78
2022/09/02 00:15:04;;;;;;;;;;;;;;;17.67;47.53;101220.94;5090542;28;20616;-78
2022/09/02 00:17:29;;;;;;;;;;;;;;;17.71;46.70;101220.72;5091095;28;19919;-78
2022/09/02 00:19:55;;;;;;;;;;;;;;;17.72;46.88;101217.19;5097268;28;19917;-78
2022/09/02 00:22:21;;;;;;;;;;;;;;;17.74;46.90;101217.13;5090737;28;20370;-78
2022/09/02 00:24:46;;;;;;;;;;;;;;;17.73;46.64;101220.69;5090513;28;19999;-78
2022/09/02 00:27:11;;;;;;;;;;;;;;;17.75;47.67;101213.56;5090671;28;19920;-78
2022/09/02 00:29:38;;;;;;;;;;;;;;;17.74;46.18;101215.34;5104354;28;19923;-77
2022/09/02 00:32:04;;;;;;;;;;;;;;;17.77;45.82;101206.50;5056200;28;19920;-77
2022/09/02 00:34:30;;;;;;;;;;;;;;;17.68;45.54;101202.47;5097212;28;20618;-77
2022/09/02 00:36:55;;;;;;;;;;;;;;;17.71;46.28;101207.59;5111594;28;20276;-77
2022/09/02 00:39:20;;;;;;;;;;;;;;;17.74;45.99;101209.25;5091253;28;20381;-77
2022/09/02 00:41:46;;;;;;;;;;;;;;;17.73;46.20;101199.66;5090918;28;19912;-77
2022/09/02 00:44:13;;;;;;;;;;;;;;;17.63;46.41;101200.97;5071696;28;19924;-77
2022/09/02 00:46:39;;;;;;;;;;;;;;;17.68;46.18;101202.47;5090080;28;19916;-77
2022/09/02 00:49:16;;;;;;;;;;;;;;;17.72;46.42;101201.41;5072367;28;19999;-78
2022/09/02 00:51:45;;;;;;;;;;;;;;;17.69;47.40;101203.31;5102949;28;20011;-78
2022/09/02 00:54:11;;;;;;;;;;;;;;;17.67;47.25;101207.81;5110497;28;19923;-78
2022/09/02 00:56:38;;;;;;;;;;;;;;;17.66;46.93;101204.31;5086266;28;19969;-78
2022/09/02 00:59:04;;;;;;;;;;;;;;;17.65;47.16;101197.34;5101620;28;19920;-78
2022/09/02 01:01:29;;;;;;;;;;;;;;;17.62;46.88;101196.66;5097325;28;20438;-78
2022/09/02 01:03:55;;;;;;;;;;;;;;;17.61;47.73;101201.03;5090498;28;19916;-78
2022/09/02 01:06:23;;;;;;;;;;;;;;;17.62;47.46;101204.53;5105908;28;19922;-78
2022/09/02 01:08:55;;;;;;;;;;;;;;;17.64;47.40;101200.91;5110451;28;20404;-78
2022/09/02 01:11:21;;;;;;;;;;;;;;;17.57;46.24;101197.66;5109702;28;20006;-78
2022/09/02 01:13:47;;;;;;;;;;;;;;;17.55;46.47;101199.50;5110565;28;20405;-78
2022/09/02 01:16:23;;;;;;;;;;;;;;;17.60;47.52;101197.56;5094701;28;19916;-78
2022/09/02 01:18:49;;;;;;;;;;;;;;;17.59;47.67;101198.47;5089892;28;19921;-78
2022/09/02 01:21:15;;;;;;;;;;;;;;;17.59;46.86;101200.22;5090112;28;19923;-78
2022/09/02 01:23:40;;;;;;;;;;;;;;;17.54;47.73;101202.19;5090348;28;19916;-78
2022/09/02 01:26:06;;;;;;;;;;;;;;;17.54;47.62;101199.56;5089818;28;19916;-78
2022/09/02 01:28:33;;;;;;;;;;;;;;;17.54;48.02;101194.28;5071514;28;19916;-78
2022/09/02 01:30:58;;;;;;;;;;;;;;;17.53;47.59;101195.25;5089925;28;19917;-78
2022/09/02 01:33:23;;;;;;;;;;;;;;;17.53;47.05;101196.06;5100662;28;19916;-78
2022/09/02 01:35:49;;;;;;;;;;;;;;;17.50;47.16;101190.94;5103214;28;20430;-78
2022/09/02 01:38:14;;;;;;;;;;;;;;;17.51;47.06;101195.28;5090277;28;20434;-78
2022/09/02 01:40:40;;;;;;;;;;;;;;;17.53;47.58;101187.34;5082156;28;19973;-78
2022/09/02 01:43:08;;;;;;;;;;;;;;;17.48;48.16;101190.16;5089826;28;19916;-78
2022/09/02 01:45:34;;;;;;;;;;;;;;;17.46;47.83;101185.91;5096976;28;19920;-78
2022/09/02 01:48:00;;;;;;;;;;;;;;;17.49;48.31;101185.78;5069985;28;19950;-78
2022/09/02 01:50:26;;;;;;;;;;;;;;;17.46;47.36;101181.50;5087511;28;19908;-78
2022/09/02 01:52:51;;;;;;;;;;;;;;;17.46;48.10;101186.75;5089933;28;20023;-77
2022/09/02 01:55:16;;;;;;;;;;;;;;;17.41;47.81;101185.25;5093435;28;20003;-77
2022/09/02 01:57:42;;;;;;;;;;;;;;;17.44;48.30;101182.50;5081574;28;19923;-77
2022/09/02 02:00:08;;;;;;;;;;;;;;;17.38;48.34;101188.84;5071705;28;19924;-77
2022/09/02 02:02:33;;;;;;;;;;;;;;;17.39;48.30;101187.06;5100593;28;19916;-77
2022/09/02 02:04:59;;;;;;;;;;;;;;;17.37;48.55;101179.28;5091997;28;19916;-77
2022/09/02 02:07:24;;;;;;;;;;;;;;;17.37;47.79;101181.03;5101224;28;20395;-77
2022/09/02 02:09:50;;;;;;;;;;;;;;;17.35;47.56;101186.34;5109063;28;20280;-77
2022/09/02 02:12:16;;;;;;;;;;;;;;;17.35;47.92;101178.47;5113584;28;19947;-77
2022/09/02 02:14:42;;;;;;;;;;;;;;;17.38;47.36;101185.38;5113506;28;19911;-77
2022/09/02 02:17:07;;;;;;;;;;;;;;;17.32;48.14;101183.00;5100320;28;19939;-77
2022/09/02 02:19:33;;;;;;;;;;;;;;;17.35;47.44;101185.50;5092551;28;19947;-77
2022/09/02 02:21:58;;;;;;;;;;;;;;;17.35;48.03;101183.72;5073865;28;19944;-77
2022/09/02 02:24:24;;;;;;;;;;;;;;;17.33;46.93;101182.06;5092990;28;20395;-77
2022/09/02 02:26:49;;;;;;;;;;;;;;;17.32;47.12;101183.00;5101987;28;19918;-77
2022/09/02 02:29:15;;;;;;;;;;;;;;;17.28;48.16;101184.06;5113160;28;20070;-77
2022/09/02 02:31:40;;;;;;;;;;;;;;;17.31;47.42;101181.31;5113386;28;19977;-77
2022/09/02 02:34:05;;;;;;;;;;;;;;;17.31;47.30;101182.16;5112999;28;20446;-77
2022/09/02 02:36:31;;;;;;;;;;;;;;;17.27;46.65;101183.19;5106569;28;19920;-77
2022/09/02 02:38:56;;;;;;;;;;;;;;;17.26;46.62;101184.13;5092135;28;20011;-77
2022/09/02 02:41:21;;;;;;;;;;;;;;;17.33;47.08;101180.31;5093499;28;19912;-77
2022/09/02 02:43:47;;;;;;;;;;;;;;;17.27;46.82;101180.56;5094778;28;19916;-77
2022/09/02 02:46:14;;;;;;;;;;;;;;;17.26;47.62;101180.66;5112954;28;19947;-77
2022/09/02 02:48:39;;;;;;;;;;;;;;;17.28;48.29;101187.53;5098890;28;20006;-77
2022/09/02 02:51:05;;;;;;;;;;;;;;;17.28;48.46;101178.81;5100888;28;19912;-77
2022/09/02 02:53:31;;;;;;;;;;;;;;;17.25;47.78;101184.19;5096802;28;19915;-77
2022/09/02 02:55:57;;;;;;;;;;;;;;;17.29;48.47;101177.91;5084070;28;20280;-77
2022/09/02 02:58:22;;;;;;;;;;;;;;;17.28;47.99;101181.44;5109550;28;19967;-77
2022/09/02 03:00:48;;;;;;;;;;;;;;;17.20;48.01;101180.91;5092521;28;19993;-78
2022/09/02 03:03:18;;;;;;;;;;;;;;;17.21;47.68;101183.44;5092384;28;20050;-78
2022/09/02 03:05:44;;;;;;;;;;;;;;;17.23;48.75;101186.88;5102759;28;19916;-78
2022/09/02 03:08:10;;;;;;;;;;;;;;;17.22;48.61;101182.53;5108894;28;19997;-77
2022/09/02 03:10:37;;;;;;;;;;;;;;;17.21;47.87;101179.97;5092019;28;19921;-77
2022/09/02 03:13:03;;;;;;;;;;;;;;;17.18;48.01;101180.09;5108649;28;19924;-77
2022/09/02 03:15:28;;;;;;;;;;;;;;;17.21;48.06;101174.72;5082585;28;19923;-77
2022/09/02 03:17:54;;;;;;;;;;;;;;;17.16;46.86;101176.69;5093927;28;19916;-77
2022/09/02 03:20:20;;;;;;;;;;;;;;;17.19;47.72;101176.56;5096943;28;19914;-77
2022/09/02 03:22:46;;;;;;;;;;;;;;;17.18;47.63;101177.47;5105383;28;20549;-77
2022/09/02 03:25:12;;;;;;;;;;;;;;;17.19;47.00;101179.19;5091869;28;19920;-77
2022/09/02 03:27:39;;;;;;;;;;;;;;;17.19;48.42;101177.41;5091825;28;19969;-77
2022/09/02 03:30:05;;;;;;;;;;;;;;;17.13;48.06;101174.19;5101429;28;19912;-77
2022/09/02 03:32:31;;;;;;;;;;;;;;;17.19;48.14;101169.53;5094652;28;20007;-77
2022/09/02 03:34:56;;;;;;;;;;;;;;;17.24;48.57;101172.81;5091842;28;19947;-77
2022/09/02 03:37:22;;;;;;;;;;;;;;;17.22;47.86;101168.56;5091535;28;19958;-77
2022/09/02 03:39:47;;;;;;;;;;;;;;;17.19;48.35;101172.16;5090619;28;19965;-77
2022/09/02 03:42:12;;;;;;;;;;;;;;;17.19;48.01;101172.16;5079763;28;19924;-77
2022/09/02 03:44:40;;;;;;;;;;;;;;;17.15;48.71;101164.47;5091990;28;19916;-77
2022/09/02 03:47:05;;;;;;;;;;;;;;;17.15;47.47;101161.84;5090959;28;19916;-77
2022/09/02 03:49:31;;;;;;;;;;;;;;;17.19;48.09;101160.81;5091403;28;19954;-77
2022/09/02 03:51:56;;;;;;;;;;;;;;;17.16;48.64;101159.16;5091095;28;19944;-77
2022/09/02 03:54:21;;;;;;;;;;;;;;;17.20;48.43;101162.53;5091448;28;19923;-78
2022/09/02 03:56:47;;;;;;;;;;;;;;;17.20;48.55;101165.16;5091683;28;20003;-78
2022/09/02 03:59:12;;;;;;;;;;;;;;;17.20;48.88;101160.75;5073423;28;20726;-78
2022/09/02 04:01:38;;;;;;;;;;;;;;;17.19;48.67;101161.66;5090781;28;20008;-78
2022/09/02 04:04:04;;;;;;;;;;;;;;;17.17;48.72;101163.50;5091102;28;19920;-78
2022/09/02 04:06:30;;;;;;;;;;;;;;;17.15;47.43;101153.97;5073018;28;20363;-78
2022/09/02 04:08:56;;;;;;;;;;;;;;;17.25;47.97;101153.53;5091200;28;19912;-78
2022/09/02 04:11:21;;;;;;;;;;;;;;;17.17;47.90;101154.78;5073216;28;20391;-78
2022/09/02 04:13:48;;;;;;;;;;;;;;;17.18;47.25;101152.06;5091530;28;19916;-77
2022/09/02 04:22:19;;;;;;;;;;;;;;;17.19;47.41;101148.53;5090762;28;19966;-78
2022/09/02 04:24:44;;;;;;;;;;;;;;;17.20;47.58;101149.41;5090738;28;19916;-78
2022/09/02 04:27:09;;;;;;;;;;;;;;;17.25;47.40;101153.53;5090572;28;19920;-78
2022/09/02 04:29:35;;;;;;;;;;;;;;;17.19;47.42;101152.94;5090339;28;19921;-78
2022/09/02 04:32:00;;;;;;;;;;;;;;;17.22;48.16;101153.66;5071593;28;19962;-78
2022/09/02 04:34:26;;;;;;;;;;;;;;;17.23;47.73;101151.91;5089916;28;19916;-78
2022/09/02 04:36:51;;;;;;;;;;;;;;;17.15;48.31;101156.59;5091677;28;19943;-77
2022/09/02 04:39:17;;;;;;;;;;;;;;;17.15;47.61;101153.97;5090801;28;19920;-77
2022/09/02 04:41:43;;;;;;;;;;;;;;;17.15;47.61;101156.59;5090192;28;20131;-77
2022/09/02 04:44:08;;;;;;;;;;;;;;;17.18;48.33;101149.44;5090000;28;20358;-78
2022/09/02 04:46:33;;;;;;;;;;;;;;;17.14;47.80;101147.88;5090378;28;19923;-78
2022/09/02 04:48:58;;;;;;;;;;;;;;;17.18;48.70;101156.47;5090250;28;20305;-78
2022/09/02 04:51:24;;;;;;;;;;;;;;;17.10;48.10;101159.44;5055629;28;19917;-78
2022/09/02 04:53:51;;;;;;;;;;;;;;;17.07;48.11;101159.56;5090889;28;19916;-78
2022/09/02 04:56:19;;;;;;;;;;;;;;;17.15;48.09;101152.19;5090629;28;19966;-77
2022/09/02 04:58:45;;;;;;;;;;;;;;;17.15;48.24;101162.69;5072324;28;20010;-77
2022/09/02 05:01:13;;;;;;;;;;;;;;;17.16;48.18;101159.16;5090885;28;20011;-77
2022/09/02 05:03:39;;;;;;;;;;;;;;;17.17;47.94;101158.25;5097545;28;19955;-77
2022/09/02 05:06:05;;;;;;;;;;;;;;;17.14;47.62;101158.38;5111410;28;19958;-77
2022/09/02 05:08:31;;;;;;;;;;;;;;;17.18;48.31;101159.09;5110710;28;20373;-77
2022/09/02 05:11:00;;;;;;;;;;;;;;;17.18;48.11;101157.31;5095993;28;19924;-77
2022/09/02 05:13:27;;;;;;;;;;;;;;;17.16;48.04;101160.94;5077541;28;20019;-77
2022/09/02 05:15:53;;;;;;;;;;;;;;;17.18;48.71;101148.59;5105220;28;19955;-77
2022/09/02 05:18:18;;;;;;;;;;;;;;;17.15;48.66;101151.34;5071272;28;20364;-77
2022/09/02 05:20:44;;;;;;;;;;;;;;;17.12;48.17;101147.06;5072362;28;19916;-78
2022/09/02 05:23:10;;;;;;;;;;;;;;;17.17;48.31;101154.78;5094655;28;19969;-77
2022/09/02 05:25:39;;;;;;;;;;;;;;;17.19;48.77;101151.16;5098065;28;20515;-77
2022/09/02 05:28:07;;;;;;;;;;;;;;;17.20;48.56;101157.28;5089539;28;20408;-77
2022/09/02 05:30:33;;;;;;;;;;;;;;;17.21;47.61;101151.94;5089069;28;19916;-77
2022/09/02 05:32:58;;;;;;;;;;;;;;;17.18;47.46;101146.81;5095212;28;19916;-77
2022/09/02 05:35:23;;;;;;;;;;;;;;;17.16;47.92;101148.66;5097445;28;19912;-77
2022/09/02 05:37:49;;;;;;;;;;;;;;;17.17;47.32;101153.00;5093640;28;19916;-77
2022/09/02 05:40:14;;;;;;;;;;;;;;;17.11;48.49;101153.28;5089164;28;20269;-77
2022/09/02 05:42:39;;;;;;;;;;;;;;;17.15;47.76;101152.19;5091713;28;20029;-77
2022/09/02 05:45:06;;;;;;;;;;;;;;;17.15;47.72;101148.72;5112530;28;19953;-77
2022/09/02 05:47:33;;;;;;;;;;;;;;;17.14;48.54;101152.28;5109661;28;19919;-77
2022/09/02 05:50:00;;;;;;;;;;;;;;;17.19;47.58;101150.31;5093978;28;19916;-77
2022/09/02 05:52:25;;;;;;;;;;;;;;;17.19;48.33;101155.56;5107187;28;19969;-77
2022/09/02 05:54:51;;;;;;;;;;;;;;;17.19;47.98;101150.31;5082586;28;19924;-77
2022/09/02 05:57:16;;;;;;;;;;;;;;;17.24;47.42;101150.94;5095442;28;19916;-77
2022/09/02 05:59:43;;;;;;;;;;;;;;;17.21;47.93;101157.19;5112520;28;19920;-77
2022/09/02 06:02:12;;;;;;;;;;;;;;;17.25;48.34;101157.94;5099303;28;20358;-77
2022/09/02 06:04:38;;;;;;;;;;;;;;;17.27;47.49;101156.06;5107484;28;20411;-77
2022/09/02 06:07:04;;;;;;;;;;;;;;;17.26;48.18;101155.25;5101383;28;19927;-77
2022/09/02 06:09:29;;;;;;;;;;;;;;;17.29;48.02;101156.88;5092260;28;19916;-77
2022/09/02 06:11:54;;;;;;;;;;;;;;;17.31;47.78;101153.28;5105357;28;19916;-78
2022/09/02 06:14:21;;;;;;;;;;;;;;;17.21;48.12;101153.72;5108075;28;19915;-78
2022/09/02 06:16:47;;;;;;;;;;;;;;;17.30;47.68;101151.56;5103058;28;19939;-78
2022/09/02 06:19:13;;;;;;;;;;;;;;;17.34;48.14;101154.91;5092958;28;19920;-78
2022/09/02 06:21:41;;;;;;;;;;;;;;;17.26;48.24;101154.38;5081933;28;19969;-77
2022/09/02 06:24:07;;;;;;;;;;;;;;;17.38;48.18;101156.50;5096627;28;20457;-77
2022/09/02 06:26:32;;;;;;;;;;;;;;;17.32;48.43;101159.38;5093992;28;20336;-77
2022/09/02 06:28:57;;;;;;;;;;;;;;;17.40;48.75;101149.41;5107346;28;19915;-77
2022/09/02 06:31:23;;;;;;;;;;;;;;;17.41;48.58;101159.00;5107630;28;19920;-77
2022/09/02 06:33:51;;;;;;;;;;;;;;;17.42;48.16;101151.03;5093592;28;19920;-77
2022/09/02 06:36:16;;;;;;;;;;;;;;;17.44;48.56;101154.44;5109973;28;19921;-77
2022/09/02 06:38:44;;;;;;;;;;;;;;;17.45;48.56;101153.53;5083822;28;19947;-77
2022/09/02 06:41:10;;;;;;;;;;;;;;;17.49;48.87;101146.38;5072866;28;20498;-77
2022/09/02 06:43:35;;;;;;;;;;;;;;;17.49;49.55;101152.47;5064946;28;19923;-78
2022/09/02 06:46:01;;;;;;;;;;;;;;;17.52;49.26;101154.13;5111039;28;19916;-78
2022/09/02 06:48:26;;;;;;;;;;;;;;;17.54;49.02;101147.00;5094331;28;20399;-78
2022/09/02 06:50:52;;;;;;;;;;;;;;;17.51;49.13;101147.16;5093406;28;19912;-78
2022/09/02 06:53:18;;;;;;;;;;;;;;;17.55;48.92;101154.84;5106739;28;19912;-78
2022/09/02 06:55:44;;;;;;;;;;;;;;;17.58;48.59;101148.59;5112469;28;20673;-78
2022/09/02 06:58:09;;;;;;;;;;;;;;;17.62;48.84;101149.34;5111041;28;19920;-78
2022/09/02 07:00:35;;;;;;;;;;;;;;;17.63;49.32;101143.16;5105505;28;19965;-78
2022/09/02 07:05:45;;;;;;;;;;;;;;;17.67;48.59;101142.97;5094201;28;19965;-78
2022/09/02 07:08:11;;;;;;;;;;;;;;;17.71;49.31;101147.16;5107952;28;19920;-78
2022/09/02 07:10:38;;;;;;;;;;;;;;;17.76;49.55;101141.72;5109742;28;20004;-78
2022/09/02 07:13:04;;;;;;;;;;;;;;;17.74;49.98;101136.50;5112476;28;20407;-78
2022/09/02 07:15:31;;;;;;;;;;;;;;;17.71;49.44;101134.00;5108064;28;19947;-78
2022/09/02 07:17:57;;;;;;;;;;;;;;;17.72;49.05;101135.72;5092615;28;20376;-77
2022/09/02 07:20:22;;;;;;;;;;;;;;;17.79;50.31;101131.91;5091965;28;19920;-77
2022/09/02 07:22:48;;;;;;;;;;;;;;;17.77;49.20;101125.84;5091587;28;19916;-77
2022/09/02 07:25:14;;;;;;;;;;;;;;;17.79;50.34;101129.28;5091813;28;19946;-77
2022/09/02 07:27:39;;;;;;;;;;;;;;;17.80;50.15;101124.91;5091238;28;19958;-77
2022/09/02 07:30:05;;;;;;;;;;;;;;;17.84;49.75;101127.31;5073616;28;19928;-77
2022/09/02 07:32:31;;;;;;;;;;;;;;;17.81;49.00;101121.31;5092054;28;19919;-77
2022/09/02 07:34:56;;;;;;;;;;;;;;;17.83;50.19;101122.97;5091098;28;19920;-77
2022/09/02 07:37:22;;;;;;;;;;;;;;;17.86;50.80;101116.69;5091520;28;19916;-77
2022/09/02 07:39:48;;;;;;;;;;;;;;;17.84;50.87;101121.19;5084859;28;19954;-77
2022/09/02 07:42:14;;;;;;;;;;;;;;;17.90;50.78;101119.13;5104708;28;19922;-77
2022/09/02 07:44:40;;;;;;;;;;;;;;;17.91;49.79;101112.97;5091880;28;19999;-77
2022/09/02 07:47:05;;;;;;;;;;;;;;;17.96;49.28;101115.38;5072396;28;19916;-77
2022/09/02 07:49:31;;;;;;;;;;;;;;;17.97;49.00;101117.94;5097376;28;19923;-77
2022/09/02 07:51:56;;;;;;;;;;;;;;;18.01;49.60;101118.63;5091026;28;20384;-77
2022/09/02 07:54:22;;;;;;;;;;;;;;;18.02;49.16;101112.47;5086779;28;20455;-77
2022/09/02 07:56:48;;;;;;;;;;;;;;;18.03;48.59;101101.03;5094423;28;19916;-77
2022/09/02 07:59:14;;;;;;;;;;;;;;;18.05;49.69;101104.44;5101538;28;20035;-77
2022/09/02 08:01:42;;;;;;;;;;;;;;;18.08;53.50;101107.78;5097655;28;19973;-77
2022/09/02 08:04:09;;;;;;;;;;;;;;;18.09;50.62;101104.19;5109462;28;20381;-77
2022/09/02 08:06:36;;;;;;;;;;;;;;;18.08;49.52;101106.91;5101520;28;19920;-80
2022/09/02 08:09:05;;;;;;;;;;;;;;;18.11;49.73;101107.63;5093697;28;19913;-80
2022/09/02 08:11:32;;;;;;;;;;;;;;;18.10;49.04;101108.56;5100614;28;20430;-80
2022/09/02 08:13:58;;;;;;;;;;;;;;;18.13;51.07;101111.03;5078413;28;19974;-80
2022/09/02 08:16:24;;;;;;;;;;;;;;;18.12;51.47;101106.69;5066364;28;20480;-80
2022/09/02 08:18:50;;;;;;;;;;;;;;;18.19;54.88;101117.78;5101759;28;19920;-80
2022/09/02 08:21:15;;;;;;;;;;;;;;;18.18;53.62;101109.97;5093694;28;19925;-79
2022/09/02 08:23:40;;;;;;;;;;;;;;;18.19;48.41;101112.53;5108262;28;19912;-79
2022/09/02 08:26:06;;;;;;;;;;;;;;;18.21;48.90;101110.69;5103752;28;19916;-80
2022/09/02 08:28:31;;;;;;;;;;;;;;;18.22;52.71;101109.75;5097547;28;19927;-80
2022/09/02 08:30:58;;;;;;;;;;;;;;;18.23;50.37;101103.56;5101115;28;20561;-80
2022/09/02 08:33:23;;;;;;;;;;;;;;;18.24;49.69;101105.28;5103010;28;20277;-80
2022/09/02 08:35:48;;;;;;;;;;;;;;;18.24;48.43;101109.69;5096079;28;19945;-79
2022/09/02 08:38:14;;;;;;;;;;;;;;;18.26;50.63;101106.06;5093467;28;20372;-80
2022/09/02 08:40:41;;;;;;;;;;;;;;;18.29;53.19;101105.06;5095376;28;19916;-80
2022/09/02 08:43:23;;;;;;;;;;;;;;;18.30;51.97;101099.75;5100953;28;20379;-80
2022/09/02 08:45:50;;;;;;;;;;;;;;;18.31;55.13;101101.44;5103955;28;19997;-79
2022/09/02 08:48:20;;;;;;;;;;;;;;;18.31;50.12;101093.53;5102524;28;19916;-80
2022/09/02 08:50:46;;;;;;;;;;;;;;;18.35;58.92;101100.38;5097848;28;20273;-80
2022/09/02 08:53:25;;;;;;;;;;;;;;;18.33;51.26;101085.59;5103282;28;19973;-80
2022/09/02 08:55:53;;;;;;;;;;;;;;;18.33;51.30;101096.09;5099771;28;19916;-80
2022/09/02 08:58:21;;;;;;;;;;;;;;;18.38;56.38;101096.72;5105520;28;20027;-80
2022/09/02 09:00:52;;;;;;;;;;;;;;;18.38;51.34;101086.22;5101633;28;19924;-79
2022/09/02 09:03:40;;;;;;;;;;;;;;;18.40;50.03;101086.97;5103091;28;19916;-80
2022/09/02 09:06:13;;;;;;;;;;;;;;;18.40;49.83;101084.34;5088580;28;19947;-80
2022/09/02 09:08:39;;;;;;;;;;;;;;;18.44;55.60;101088.53;5101462;28;19918;-79
2022/09/02 09:11:11;;;;;;;;;;;;;;;18.45;58.07;101090.25;5096236;28;19959;-80
2022/09/02 09:13:36;;;;;;;;;;;;;;;18.42;50.62;101072.81;5094756;28;19934;-80
2022/09/02 09:16:18;;;;;;;;;;;;;;;18.48;58.83;101080.44;5097025;28;19916;-80
2022/09/02 09:18:53;;;;;;;;;;;;;;;18.47;52.93;101072.66;5087262;28;20295;-80
2022/09/02 09:21:18;;;;;;;;;;;;;;;18.45;51.64;101071.84;5093888;28;20011;-80
2022/09/02 09:23:44;;;;;;;;;;;;;;;18.46;57.79;101073.56;5104330;28;20007;-80
2022/09/02 09:26:10;;;;;;;;;;;;;;;18.48;60.00;101075.19;5094400;28;19966;-80
2022/09/02 09:28:39;;;;;;;;;;;;;;;18.52;54.42;101068.84;5100252;28;20352;-80
2022/09/02 09:31:07;;;;;;;;;;;;;;;18.58;47.18;101050.13;5095116;28;19971;-80
2022/09/02 09:33:33;;;;;;;;;;;;;;;18.57;51.37;101055.50;5110364;28;19969;-79
2022/09/02 09:35:58;;;;;;;;;;;;;;;18.53;59.76;101064.47;5088031;28;19924;-80
2022/09/02 09:38:28;;;;;;;;;;;;;;;18.56;47.14;101041.47;5095331;28;19924;-80
2022/09/02 09:41:09;;;;;;;;;;;;;;;18.68;46.21;101042.66;5097070;28;20006;-80
2022/09/02 09:43:34;;;;;;;;;;;;;;;18.68;46.36;101051.41;5110161;28;20351;-80
2022/09/02 09:46:18;;;;;;;;;;;;;;;18.68;58.33;101055.81;5101476;28;19947;-80
2022/09/02 09:48:48;;;;;;;;;;;;;;;18.72;50.70;101043.34;5105930;28;20332;-80
2022/09/02 09:51:14;;;;;;;;;;;;;;;18.73;47.59;101040.63;5098502;28;19998;-80
2022/09/02 09:53:40;;;;;;;;;;;;;;;18.77;46.86;101029.03;5103719;28;19916;-80
2022/09/02 09:56:05;;;;;;;;;;;;;;;18.64;59.57;101044.56;5101355;28;19970;-80
2022/09/02 09:58:33;;;;;;;;;;;;;;;18.75;53.18;101027.41;5101616;28;19956;-80
2022/09/02 10:01:09;;;;;;;;;;;;;;;18.75;49.28;101022.16;5107135;28;19920;-80
2022/09/02 10:03:35;;;;;;;;;;;;;;;18.88;46.70;101020.56;5084419;28;19920;-79
2022/09/02 10:06:16;;;;;;;;;;;;;;;18.83;53.99;101031.34;5088627;28;19924;-80
2022/09/02 10:08:53;;;;;;;;;;;;;;;18.89;55.26;101033.66;5090707;28;19967;-80
2022/09/02 10:11:20;;;;;;;;;;;;;;;18.80;46.61;101017.50;5096611;28;20006;-80
2022/09/02 10:13:45;;;;;;;;;;;;;;;18.84;47.45;101024.31;5106496;28;19923;-80
2022/09/02 10:16:20;;;;;;;;;;;;;;;18.79;44.09;101018.41;5071355;28;19924;-80
2022/09/02 10:18:49;;;;;;;;;;;;;;;18.75;50.49;101030.03;5077677;28;19944;-80
2022/09/02 10:21:18;;;;;;;;;;;;;;;18.82;45.45;101015.63;5095726;28;19916;-80
2022/09/02 10:23:49;;;;;;;;;;;;;;;18.87;44.64;101017.09;5083242;28;20262;-80
2022/09/02 10:26:24;;;;;;;;;;;;;;;18.95;54.91;101020.19;5100991;28;19916;-80
2022/09/02 10:28:59;;;;;;;;;;;;;;;18.92;43.86;101008.97;5092153;28;19994;-80
2022/09/02 10:31:31;;;;;;;;;;;;;;;18.95;43.97;101006.19;5104087;28;19919;-80
2022/09/02 10:34:22;;;;;;;;;;;;;;;19.05;40.66;101004.75;5108279;28;19920;-80
2022/09/02 10:36:53;;;;;;;;;;;;;;;18.94;45.83;101012.34;5083013;28;20423;-80
2022/09/02 10:39:42;;;;;;;;;;;;;;;18.91;55.32;101012.50;5094043;28;19921;-80
2022/09/02 10:42:18;;;;;;;;;;;;;;;18.99;42.12;100992.75;5080704;28;19962;-80
2022/09/02 10:44:44;;;;;;;;;;;;;;;18.96;54.35;100999.97;5103170;28;19912;-80
2022/09/02 10:47:16;;;;;;;;;;;;;;;19.13;42.13;100989.41;5094286;28;19923;-80
2022/09/02 10:50:00;;;;;;;;;;;;;;;19.08;44.02;100994.06;5101740;28;19916;-80
2022/09/02 10:52:31;;;;;;;;;;;;;;;19.03;44.44;100989.03;5098860;28;20353;-80
2022/09/02 10:54:56;;;;;;;;;;;;;;;19.05;51.63;100991.59;5100203;28;19961;-80
2022/09/02 10:57:22;;;;;;;;;;;;;;;19.00;48.64;100994.47;5101707;28;19975;-80
2022/09/02 10:59:47;;;;;;;;;;;;;;;18.96;45.40;100984.16;5102197;28;19916;-80
2022/09/02 11:02:24;;;;;;;;;;;;;;;19.03;43.37;100982.94;5076004;28;19931;-80
2022/09/02 11:04:59;;;;;;;;;;;;;;;19.12;43.41;100982.44;5073647;28;19970;-80
2022/09/02 11:07:33;;;;;;;;;;;;;;;19.13;52.06;100982.34;5099424;28;19919;-80
2022/09/02 11:10:02;;;;;;;;;;;;;;;19.14;43.58;100976.16;5099205;28;20341;-80
2022/09/02 11:12:36;;;;;;;;;;;;;;;19.29;40.20;100978.94;5053251;28;19961;-80
2022/09/02 11:15:03;;;;;;;;;;;;;;;19.09;56.74;100991.34;5072266;28;19917;-80
2022/09/02 11:17:28;;;;;;;;;;;;;;;19.08;47.58;100973.84;5072242;28;19931;-79
2022/09/02 11:20:08;;;;;;;;;;;;;;;19.13;46.61;100971.81;5071690;28;20389;-80
2022/09/02 11:22:44;;;;;;;;;;;;;;;19.00;57.47;100978.69;5065757;28;19920;-80
2022/09/02 11:25:20;;;;;;;;;;;;;;;19.20;52.25;100961.81;5071527;28;20276;-80
2022/09/02 11:27:51;;;;;;;;;;;;;;;19.23;44.56;100964.28;5071234;28;19916;-80
2022/09/02 11:30:25;;;;;;;;;;;;;;;19.03;57.79;100978.50;5071674;28;19921;-80
2022/09/02 11:33:09;;;;;;;;;;;;;;;18.99;58.82;100965.56;5071107;28;19916;-80
2022/09/02 11:35:37;;;;;;;;;;;;;;;19.15;45.83;100948.91;5053423;28;20384;-79
2022/09/02 11:38:21;;;;;;;;;;;;;;;19.19;47.46;100955.69;5071055;28;20270;-80
2022/09/02 11:40:47;;;;;;;;;;;;;;;19.20;47.51;100948.63;5068333;28;19994;-80
2022/09/02 11:43:12;;;;;;;;;;;;;;;19.16;56.87;100950.56;5070895;28;19917;-80
2022/09/02 11:45:51;;;;;;;;;;;;;;;19.48;40.14;100935.72;5066570;28;20439;-80
2022/09/02 11:48:16;;;;;;;;;;;;;;;19.48;43.55;100933.06;5070777;28;19920;-80
2022/09/02 11:51:00;;;;;;;;;;;;;;;19.35;41.13;100941.72;5069393;28;20431;-80
2022/09/02 11:53:30;;;;;;;;;;;;;;;19.32;54.60;100955.06;5070797;28;19917;-80
2022/09/02 11:56:04;;;;;;;;;;;;;;;19.22;56.54;100944.97;5070781;28;19916;-80
2022/09/02 11:58:34;;;;;;;;;;;;;;;19.06;57.78;100941.50;5069760;28;19927;-80
2022/09/02 12:01:03;;;;;;;;;;;;;;;19.34;42.85;100930.38;5070376;28;19924;-80
2022/09/02 12:03:30;;;;;;;;;;;;;;;19.29;45.80;100932.38;5077900;28;20019;-80
2022/09/02 12:06:06;;;;;;;;;;;;;;;19.23;57.00;100945.84;5078391;28;20003;-80
2022/09/02 12:08:34;;;;;;;;;;;;;;;19.20;52.04;100938.09;5071147;28;20405;-80
2022/09/02 12:11:00;;;;;;;;;;;;;;;19.22;48.57;100929.19;5080325;28;19927;-80
2022/09/02 12:13:43;;;;;;;;;;;;;;;19.13;52.85;100927.03;5083274;28;20362;-80
2022/09/02 12:16:12;;;;;;;;;;;;;;;19.21;45.49;100913.47;5107542;28;20061;-80
2022/09/02 12:18:38;;;;;;;;;;;;;;;19.28;50.62;100929.81;5100533;28;19920;-80
2022/09/02 12:21:09;;;;;;;;;;;;;;;19.35;56.66;100925.91;5093528;28;20011;-80
2022/09/02 12:23:49;;;;;;;;;;;;;;;19.21;48.17;100924.00;5106904;28;19912;-80
2022/09/02 12:26:15;;;;;;;;;;;;;;;19.31;46.46;100917.34;5086209;28;19917;-80
2022/09/02 12:28:42;;;;;;;;;;;;;;;19.26;57.85;100919.34;5101080;28;20316;-80
2022/09/02 12:31:09;;;;;;;;;;;;;;;19.37;54.51;100919.66;5102716;28;19916;-80
2022/09/02 12:33:34;;;;;;;;;;;;;;;19.28;44.71;100907.00;5098579;28;19942;-79
2022/09/02 12:36:03;;;;;;;;;;;;;;;19.35;53.23;100916.22;5102069;28;20432;-80
2022/09/02 12:38:30;;;;;;;;;;;;;;;19.46;54.89;100907.75;5090682;28;19916;-80
2022/09/02 12:41:04;;;;;;;;;;;;;;;19.40;55.62;100902.81;5094021;28;19919;-80
2022/09/02 12:43:29;;;;;;;;;;;;;;;19.37;53.56;100905.63;5107242;28;19947;-80
2022/09/02 12:45:59;;;;;;;;;;;;;;;19.18;58.49;100903.97;5093658;28;19950;-80